Time;durP1;ratioP1;P1;durP2;ratioP2;P2;SDS_P1;SDS_P2;PMS_P1;PMS_P2;Temp;Humidity;BMP_temperature;BMP_pressure;BME280_temperature;BME280_humidity;BME280_pressure;Samples;Min_cycle;Max_cycle;Signal;HPM_P1;HPM_P2
2022/08/31 00:05:01;;;;;;;2.22;0.40;;;19.60;99.90;;;;;;5052614;28;20202;-82
2022/08/31 00:07:35;;;;;;;1.15;0.30;;;19.60;99.90;;;;;;5051974;28;20207;-82
2022/08/31 00:10:13;;;;;;;1.48;0.30;;;19.70;99.90;;;;;;5050377;28;20200;-83
2022/08/31 00:12:45;;;;;;;3.92;0.40;;;19.70;99.90;;;;;;5051892;28;20216;-84
2022/08/31 00:15:18;;;;;;;6.30;0.47;;;19.70;99.90;;;;;;5051516;28;20200;-83
2022/08/31 00:17:49;;;;;;;0.95;0.30;;;19.80;99.90;;;;;;5052121;28;20201;-83
2022/08/31 00:20:21;;;;;;;0.73;0.57;;;19.90;99.90;;;;;;5052240;28;20283;-82
2022/08/31 00:22:53;;;;;;;1.95;0.50;;;19.90;99.90;;;;;;5044472;28;20213;-83
2022/08/31 00:25:25;;;;;;;1.65;0.38;;;20.00;99.90;;;;;;5050725;28;20288;-82
2022/08/31 00:27:56;;;;;;;1.13;0.30;;;20.10;99.90;;;;;;5063700;28;20208;-83
2022/08/31 00:30:27;;;;;;;1.77;0.30;;;20.20;99.90;;;;;;5069312;28;20192;-82
2022/08/31 00:32:58;;;;;;;2.65;0.50;;;20.30;99.90;;;;;;5070861;28;20200;-82
2022/08/31 00:35:29;;;;;;;0.85;0.47;;;20.40;99.90;;;;;;5071397;28;20655;-83
2022/08/31 00:38:02;;;;;;;2.25;0.50;;;20.50;99.90;;;;;;5031828;28;20284;-83
2022/08/31 00:40:34;;;;;;;1.63;0.30;;;20.60;99.90;;;;;;5045426;28;20219;-82
2022/08/31 00:43:05;;;;;;;1.58;0.40;;;20.50;99.90;;;;;;5042006;28;20243;-81
2022/08/31 00:45:36;;;;;;;2.33;0.50;;;20.50;99.90;;;;;;5067666;28;20196;-81
2022/08/31 00:48:07;;;;;;;1.42;0.32;;;20.50;99.90;;;;;;5069788;28;20221;-82
2022/08/31 00:50:38;;;;;;;2.03;0.50;;;20.60;99.90;;;;;;5070888;28;20206;-82
2022/08/31 00:53:11;;;;;;;0.77;0.50;;;20.50;99.90;;;;;;5043706;28;20231;-82
2022/08/31 00:55:41;;;;;;;0.80;0.50;;;20.50;99.90;;;;;;5051458;28;20203;-83
2022/08/31 00:58:15;;;;;;;1.85;0.50;;;20.60;99.90;;;;;;5050785;28;20196;-82
2022/08/31 01:00:47;;;;;;;7.72;2.35;;;20.50;99.90;;;;;;5051723;28;20211;-83
2022/08/31 01:03:19;;;;;;;2.65;0.90;;;20.60;99.90;;;;;;5051116;28;20414;-82
2022/08/31 01:05:50;;;;;;;2.75;0.40;;;20.70;99.90;;;;;;5050177;28;20681;-86
2022/08/31 01:08:23;;;;;;;0.82;0.30;;;20.80;99.90;;;;;;5049884;28;20197;-82
2022/08/31 01:10:54;;;;;;;1.65;0.60;;;20.90;99.90;;;;;;5049085;28;20316;-81
2022/08/31 01:13:30;;;;;;;1.85;0.50;;;21.00;99.90;;;;;;5049828;28;20217;-81
2022/08/31 01:16:07;;;;;;;1.15;0.60;;;20.90;99.90;;;;;;5051787;22;20304;-83
2022/08/31 01:18:39;;;;;;;3.53;0.60;;;21.10;99.90;;;;;;5037235;28;20208;-83
2022/08/31 01:21:25;;;;;;;2.47;0.55;;;21.20;99.90;;;;;;5030662;28;20231;-84
2022/08/31 01:24:01;;;;;;;3.65;0.60;;;21.20;99.90;;;;;;5022388;28;20231;-83
2022/08/31 01:26:34;;;;;;;2.67;0.63;;;21.30;99.90;;;;;;5011667;28;20207;-84
2022/08/31 01:29:07;;;;;;;3.25;0.68;;;21.30;99.90;;;;;;5012324;28;20193;-83
2022/08/31 01:31:42;;;;;;;2.05;0.55;;;21.40;99.90;;;;;;5028465;28;20303;-83
2022/08/31 01:34:14;;;;;;;1.23;0.60;;;21.40;99.90;;;;;;5036801;28;20192;-83
2022/08/31 01:36:46;;;;;;;2.65;0.60;;;21.50;99.90;;;;;;5044185;28;20200;-83
2022/08/31 01:39:24;;;;;;;3.17;0.80;;;21.50;99.90;;;;;;5042010;28;20221;-83
2022/08/31 01:41:56;;;;;;;1.58;0.50;;;21.40;99.90;;;;;;5037069;28;20665;-82
2022/08/31 01:44:28;;;;;;;3.10;0.50;;;21.30;99.90;;;;;;5033308;28;20232;-82
2022/08/31 01:47:00;;;;;;;1.58;0.63;;;21.40;99.90;;;;;;5043373;28;20228;-83
2022/08/31 01:49:32;;;;;;;1.92;0.50;;;21.40;99.90;;;;;;5038007;28;20230;-83
2022/08/31 01:52:04;;;;;;;1.13;0.40;;;21.40;99.90;;;;;;5035851;28;20202;-82
2022/08/31 01:54:40;;;;;;;0.90;0.40;;;21.40;99.90;;;;;;5044161;28;20261;-81
2022/08/31 01:57:14;;;;;;;2.20;0.50;;;21.30;99.90;;;;;;5046217;28;20577;-81
2022/08/31 01:59:45;;;;;;;2.42;0.57;;;21.40;99.90;;;;;;5046172;28;20193;-82
2022/08/31 02:02:17;;;;;;;2.05;0.73;;;21.40;99.90;;;;;;5046939;28;20186;-82
2022/08/31 02:04:49;;;;;;;3.58;0.70;;;21.50;99.90;;;;;;5044630;28;20320;-81
2022/08/31 02:07:22;;;;;;;1.85;0.80;;;21.60;99.90;;;;;;5031321;28;20190;-80
2022/08/31 02:09:57;;;;;;;2.95;0.52;;;21.60;99.90;;;;;;5045914;28;20232;-81
2022/08/31 02:15:13;;;;;;;4.50;0.60;;;21.50;99.90;;;;;;5044022;28;20307;-81
2022/08/31 02:17:45;;;;;;;4.35;0.80;;;21.50;99.90;;;;;;5044193;28;20197;-81
2022/08/31 02:20:19;;;;;;;2.30;0.68;;;21.50;99.90;;;;;;5042979;28;20182;-82
2022/08/31 02:22:50;;;;;;;2.80;0.70;;;21.40;99.90;;;;;;5036707;28;20233;-81
2022/08/31 02:25:23;;;;;;;1.90;0.90;;;21.30;99.90;;;;;;5021670;28;20233;-81
2022/08/31 02:27:54;;;;;;;4.60;1.00;;;21.20;99.90;;;;;;5014981;28;20224;-81
2022/08/31 02:30:24;;;;;;;3.03;0.88;;;21.10;99.90;;;;;;5014798;28;20679;-81
2022/08/31 02:32:56;;;;;;;2.50;0.98;;;21.10;99.90;;;;;;5014950;28;20202;-81
2022/08/31 02:35:27;;;;;;;4.75;1.35;;;21.10;99.90;;;;;;5016205;28;20204;-82
2022/08/31 02:37:58;;;;;;;5.72;1.45;;;21.10;99.90;;;;;;5017870;28;20193;-81
2022/08/31 02:40:31;;;;;;;7.05;1.65;;;21.30;99.90;;;;;;5033177;28;20205;-83
2022/08/31 02:43:02;;;;;;;7.63;1.52;;;21.60;99.90;;;;;;5035471;28;20623;-83
2022/08/31 02:45:32;;;;;;;7.57;1.95;;;21.70;99.90;;;;;;5034511;28;20210;-82
2022/08/31 02:48:03;;;;;;;7.10;1.55;;;21.80;99.90;;;;;;5034230;28;20190;-81
2022/08/31 02:50:34;;;;;;;4.13;1.52;;;21.80;99.90;;;;;;5034397;28;20201;-84
2022/08/31 02:53:07;;;;;;;5.72;1.50;;;21.80;99.90;;;;;;5037630;28;20204;-85
2022/08/31 02:55:40;;;;;;;6.10;1.95;;;21.90;99.90;;;;;;5035693;28;20295;-81
2022/08/31 02:58:13;;;;;;;6.35;1.50;;;21.80;99.90;;;;;;5022731;28;20568;-82
2022/08/31 03:00:47;;;;;;;4.13;1.40;;;21.80;99.90;;;;;;5034259;28;20205;-85
2022/08/31 03:03:19;;;;;;;2.92;1.27;;;21.80;99.90;;;;;;5034869;28;20193;-85
2022/08/31 03:05:49;;;;;;;5.80;1.40;;;21.70;99.90;;;;;;5034206;28;20217;-82
2022/08/31 03:08:22;;;;;;;5.57;1.50;;;21.60;99.90;;;;;;5038922;28;20185;-83
2022/08/31 03:10:57;;;;;;;5.97;2.00;;;21.40;99.90;;;;;;5042565;28;20267;-83
2022/08/31 03:13:29;;;;;;;6.95;1.55;;;21.30;99.90;;;;;;5046827;28;20268;-83
2022/08/31 03:16:01;;;;;;;5.20;1.45;;;21.20;99.90;;;;;;5044484;28;20233;-83
2022/08/31 03:18:33;;;;;;;6.70;1.90;;;21.00;99.90;;;;;;5054873;28;20237;-84
2022/08/31 03:21:04;;;;;;;8.75;2.20;;;20.90;99.90;;;;;;5039698;28;20189;-84
2022/08/31 03:23:35;;;;;;;4.43;1.80;;;20.80;99.90;;;;;;5032113;28;20226;-85
2022/08/31 03:26:08;;;;;;;5.70;2.20;;;20.70;99.90;;;;;;5034259;28;20548;-83
2022/08/31 03:28:40;;;;;;;7.38;2.17;;;20.60;99.90;;;;;;5033631;28;20201;-83
2022/08/31 03:31:12;;;;;;;3.60;1.52;;;20.60;99.90;;;;;;5013764;28;20208;-83
2022/08/31 03:33:43;;;;;;;8.75;2.25;;;20.50;99.90;;;;;;5026316;28;20209;-82
2022/08/31 03:36:15;;;;;;;7.03;1.88;;;20.40;99.90;;;;;;5033839;28;20540;-83
2022/08/31 03:38:45;;;;;;;10.27;1.95;;;20.30;99.90;;;;;;5031786;28;20565;-83
2022/08/31 03:41:20;;;;;;;6.72;1.90;;;20.30;99.90;;;;;;5033100;28;20203;-82
2022/08/31 03:43:51;;;;;;;6.18;1.90;;;20.20;99.90;;;;;;5033509;28;20217;-84
2022/08/31 03:46:23;;;;;;;7.40;2.10;;;20.10;99.90;;;;;;5033518;28;20205;-85
2022/08/31 03:48:54;;;;;;;7.40;2.00;;;20.20;99.90;;;;;;5032703;28;20185;-83
2022/08/31 03:51:25;;;;;;;5.43;1.52;;;20.40;99.90;;;;;;5032646;28;20203;-83
2022/08/31 03:53:55;;;;;;;6.53;1.70;;;20.50;99.90;;;;;;5031076;28;20644;-83
2022/08/31 03:56:28;;;;;;;7.30;1.67;;;20.70;99.90;;;;;;5033455;28;20197;-83
2022/08/31 03:58:59;;;;;;;6.70;1.77;;;20.90;99.90;;;;;;5033066;28;20729;-84
2022/08/31 04:01:30;;;;;;;4.35;1.50;;;21.00;99.90;;;;;;5033054;28;20310;-84
2022/08/31 04:04:01;;;;;;;5.63;1.45;;;21.10;99.90;;;;;;5032613;28;20225;-83
2022/08/31 04:06:32;;;;;;;3.40;1.50;;;21.10;99.90;;;;;;5032649;28;20201;-83
2022/08/31 04:09:02;;;;;;;2.88;1.00;;;21.20;99.90;;;;;;5029995;28;20217;-83
2022/08/31 04:11:35;;;;;;;3.60;1.20;;;21.20;99.90;;;;;;5032361;28;20652;-84
2022/08/31 04:14:06;;;;;;;2.75;1.02;;;21.10;99.90;;;;;;5032474;28;20205;-83
2022/08/31 04:16:39;;;;;;;3.92;1.30;;;21.20;99.90;;;;;;5035087;28;20195;-84
2022/08/31 04:19:13;;;;;;;3.40;1.17;;;21.20;99.90;;;;;;5045804;28;20300;-83
2022/08/31 04:21:46;;;;;;;5.28;1.60;;;21.20;99.90;;;;;;5053807;28;20394;-84
2022/08/31 04:24:17;;;;;;;7.38;1.60;;;21.10;99.90;;;;;;5021495;28;20237;-82
2022/08/31 04:26:52;;;;;;;5.57;1.75;;;20.90;99.90;;;;;;5031371;28;20215;-83
2022/08/31 04:29:23;;;;;;;4.35;1.63;;;20.90;99.90;;;;;;5031894;28;20213;-83
2022/08/31 04:31:54;;;;;;;5.95;1.50;;;20.80;99.90;;;;;;5032528;28;20208;-84
2022/08/31 04:34:24;;;;;;;3.60;1.27;;;20.70;99.90;;;;;;5032334;28;20209;-84
2022/08/31 04:36:55;;;;;;;3.88;1.15;;;20.70;99.90;;;;;;5032210;28;20288;-83
2022/08/31 04:39:29;;;;;;;2.65;1.02;;;20.70;99.90;;;;;;5028297;28;20253;-83
2022/08/31 04:42:02;;;;;;;2.53;1.13;;;20.60;99.90;;;;;;5030992;28;20201;-84
2022/08/31 04:44:33;;;;;;;3.85;1.58;;;20.50;99.90;;;;;;5031656;28;20226;-85
2022/08/31 04:47:03;;;;;;;4.70;1.40;;;20.40;99.90;;;;;;5032332;28;20202;-84
2022/08/31 04:49:34;;;;;;;4.88;1.55;;;20.40;99.90;;;;;;5028498;28;20287;-85
2022/08/31 04:52:10;;;;;;;3.35;1.20;;;20.40;99.90;;;;;;5036954;28;20197;-84
2022/08/31 04:54:41;;;;;;;4.72;1.55;;;20.30;99.90;;;;;;5037330;28;20212;-84
2022/08/31 04:57:19;;;;;;;5.07;1.85;;;20.30;99.90;;;;;;5042842;28;20622;-86
2022/08/31 04:59:50;;;;;;;3.00;1.20;;;20.20;99.90;;;;;;5035021;28;20193;-84
2022/08/31 05:02:23;;;;;;;4.07;1.73;;;20.10;99.90;;;;;;5038034;28;20202;-83
2022/08/31 05:04:54;;;;;;;2.60;1.05;;;20.10;99.90;;;;;;5019358;28;20267;-83
2022/08/31 05:07:27;;;;;;;2.65;1.10;;;20.00;99.90;;;;;;5020183;28;20280;-82
2022/08/31 05:09:58;;;;;;;3.58;1.10;;;19.90;99.90;;;;;;5031557;28;20205;-82
2022/08/31 05:12:34;;;;;;;3.33;1.33;;;19.90;99.90;;;;;;5035366;28;20664;-82
2022/08/31 05:15:05;;;;;;;2.55;1.35;;;19.90;99.90;;;;;;5036924;28;20237;-82
2022/08/31 05:17:40;;;;;;;2.97;1.38;;;19.90;99.90;;;;;;5035435;28;20273;-84
2022/08/31 05:20:12;;;;;;;3.78;1.80;;;19.90;99.90;;;;;;5032738;28;20671;-83
2022/08/31 05:22:47;;;;;;;3.42;1.23;;;19.90;99.90;;;;;;5037461;28;20248;-83
2022/08/31 05:25:31;;;;;;;4.07;1.17;;;20.00;99.90;;;;;;5043891;28;20228;-83
2022/08/31 05:28:22;;;;;;;2.22;1.00;;;20.00;99.90;;;;;;5042913;28;20470;-85
2022/08/31 05:31:00;;;;;;;2.58;0.98;;;20.00;99.90;;;;;;5045366;28;20205;-87
2022/08/31 05:33:32;;;;;;;3.13;0.95;;;20.00;99.90;;;;;;5039356;28;20209;-85
2022/08/31 05:36:04;;;;;;;3.80;1.48;;;20.00;99.90;;;;;;5041956;28;20584;-84
2022/08/31 05:38:45;;;;;;;3.13;1.33;;;20.00;99.90;;;;;;5048447;28;20257;-82
2022/08/31 05:41:17;;;;;;;6.13;2.03;;;20.00;99.90;;;;;;5033291;28;20207;-81
2022/08/31 05:46:48;;;;;;;5.97;2.90;;;19.80;99.90;;;;;;5048247;28;20197;-82
2022/08/31 05:49:27;;;;;;;5.15;3.20;;;19.70;99.90;;;;;;5041606;28;20627;-83
2022/08/31 05:52:07;;;;;;;4.97;2.70;;;19.60;99.90;;;;;;5046716;28;20201;-82
2022/08/31 05:55:02;;;;;;;4.25;1.90;;;19.60;99.90;;;;;;5047057;28;20248;-82
2022/08/31 05:58:02;;;;;;;5.43;1.80;;;19.50;99.90;;;;;;5031719;28;20205;-83
2022/08/31 06:04:07;;;;;;;3.35;1.20;;;19.40;99.90;;;;;;5052540;28;20236;-83
2022/08/31 06:12:30;;;;;;;4.13;1.30;;;19.20;99.90;;;;;;5041870;28;20252;-82
2022/08/31 06:17:50;;;;;;;4.05;1.35;;;19.20;99.90;;;;;;5049005;28;20210;-82
2022/08/31 06:20:23;;;;;;;6.97;1.80;;;19.20;99.90;;;;;;5044243;28;20209;-82
2022/08/31 06:22:57;;;;;;;7.80;1.73;;;19.10;99.90;;;;;;5046505;28;20225;-83
2022/08/31 06:25:35;;;;;;;3.90;1.50;;;19.10;99.90;;;;;;5034554;28;20226;-82
2022/08/31 06:28:20;;;;;;;7.18;2.10;;;19.10;99.90;;;;;;5033697;28;20182;-80
2022/08/31 06:30:54;;;;;;;4.97;1.40;;;19.10;99.90;;;;;;5032914;28;20206;-83
2022/08/31 06:33:25;;;;;;;6.43;1.60;;;19.10;99.90;;;;;;5045624;28;20221;-82
2022/08/31 06:36:10;;;;;;;8.52;1.80;;;19.10;99.90;;;;;;5038373;28;20231;-79
2022/08/31 06:38:42;;;;;;;5.68;1.40;;;19.10;99.90;;;;;;5039202;28;20207;-80
2022/08/31 06:41:18;;;;;;;9.35;1.80;;;19.10;99.90;;;;;;5029509;28;20193;-83
2022/08/31 06:43:50;;;;;;;7.38;1.98;;;19.10;99.90;;;;;;5022946;28;20600;-82
2022/08/31 06:46:25;;;;;;;6.63;1.80;;;19.00;99.90;;;;;;5035031;28;20225;-82
2022/08/31 06:49:01;;;;;;;8.93;1.90;;;19.00;99.90;;;;;;5039816;28;20239;-83
2022/08/31 06:51:46;;;;;;;9.23;1.90;;;19.00;99.90;;;;;;5018826;28;20204;-82
2022/08/31 06:54:22;;;;;;;7.78;1.80;;;18.90;99.90;;;;;;5029202;28;20201;-83
2022/08/31 06:56:58;;;;;;;9.00;2.00;;;18.90;99.90;;;;;;5036315;28;20221;-82
2022/08/31 06:59:33;;;;;;;6.32;2.22;;;18.80;99.90;;;;;;5043499;28;20200;-83
2022/08/31 07:02:04;;;;;;;6.78;1.75;;;18.80;99.90;;;;;;5035602;28;20204;-82
2022/08/31 07:04:50;;;;;;;6.43;1.83;;;18.80;99.90;;;;;;5041274;28;20205;-83
2022/08/31 07:07:22;;;;;;;7.50;1.98;;;18.70;99.90;;;;;;5035834;28;20197;-80
2022/08/31 07:09:53;;;;;;;8.32;1.55;;;18.80;99.90;;;;;;5031428;28;20205;-81
2022/08/31 07:12:24;;;;;;;10.38;2.10;;;18.70;99.90;;;;;;5031982;28;20563;-80
2022/08/31 07:14:55;;;;;;;6.50;1.77;;;18.70;99.90;;;;;;5033883;28;20244;-81
2022/08/31 07:17:26;;;;;;;4.72;1.58;;;18.70;99.90;;;;;;5033249;28;20201;-81
2022/08/31 07:19:56;;;;;;;10.48;2.20;;;18.70;99.90;;;;;;5033535;28;20203;-81
2022/08/31 07:22:33;;;;;;;4.80;1.40;;;18.70;99.90;;;;;;5032909;28;20197;-85
2022/08/31 07:25:04;;;;;;;5.25;1.60;;;18.60;99.90;;;;;;5028958;28;20239;-83
2022/08/31 07:27:35;;;;;;;7.47;1.80;;;18.50;99.90;;;;;;5035031;28;20208;-84
2022/08/31 07:30:10;;;;;;;7.93;1.63;;;18.50;99.90;;;;;;5028463;28;20218;-83
2022/08/31 07:32:41;;;;;;;7.35;1.80;;;18.50;99.90;;;;;;5026260;28;20207;-83
2022/08/31 07:35:12;;;;;;;4.20;1.50;;;18.40;99.90;;;;;;5039242;28;20224;-81
2022/08/31 07:43:21;;;;;;;7.35;1.83;;;18.30;99.90;;;;;;5032927;28;20200;-81
2022/08/31 07:45:52;;;;;;;9.15;2.28;;;18.40;99.90;;;;;;5032514;28;20290;-80
2022/08/31 07:48:26;;;;;;;5.35;1.42;;;18.30;99.90;;;;;;5036988;28;20389;-79
2022/08/31 07:50:56;;;;;;;6.40;2.03;;;18.30;99.90;;;;;;5013467;28;20244;-81
2022/08/31 07:53:30;;;;;;;6.95;2.10;;;18.30;99.90;;;;;;5023001;28;20197;-82
2022/08/31 07:56:01;;;;;;;10.30;2.10;;;18.30;99.90;;;;;;5031789;28;20701;-80
2022/08/31 07:58:33;;;;;;;7.60;1.80;;;18.30;99.90;;;;;;5035654;28;20723;-81
2022/08/31 08:01:04;;;;;;;6.10;2.00;;;18.20;99.90;;;;;;5027071;28;20535;-82
2022/08/31 08:03:35;;;;;;;7.53;1.95;;;18.20;99.90;;;;;;5032280;28;20223;-81
2022/08/31 08:06:07;;;;;;;8.52;2.50;;;18.20;99.90;;;;;;5033856;28;20235;-81
2022/08/31 08:08:42;;;;;;;6.97;1.90;;;18.20;99.90;;;;;;5032140;28;20213;-81
2022/08/31 08:11:18;;;;;;;9.45;2.22;;;18.20;99.90;;;;;;5031967;28;20213;-81
2022/08/31 08:13:49;;;;;;;11.90;2.47;;;18.20;99.90;;;;;;5033558;28;20197;-81
2022/08/31 08:16:20;;;;;;;9.02;2.22;;;18.20;99.90;;;;;;5029080;28;20308;-82
2022/08/31 08:18:51;;;;;;;8.02;2.05;;;18.20;99.90;;;;;;5028248;28;20676;-83
2022/08/31 08:21:22;;;;;;;9.98;2.80;;;18.20;99.90;;;;;;5034046;28;20194;-81
2022/08/31 08:23:55;;;;;;;10.32;2.53;;;18.20;99.90;;;;;;5029810;28;20224;-81
2022/08/31 08:26:25;;;;;;;9.95;1.95;;;18.20;99.90;;;;;;5012749;28;20337;-83
2022/08/31 08:28:56;;;;;;;11.55;2.42;;;18.20;99.90;;;;;;5016048;28;20229;-85
2022/08/31 08:31:27;;;;;;;8.27;2.30;;;18.20;99.90;;;;;;5031632;28;20206;-84
2022/08/31 08:33:58;;;;;;;9.18;1.88;;;18.20;99.90;;;;;;5021858;28;20229;-83
2022/08/31 08:36:34;;;;;;;9.27;2.50;;;18.20;99.90;;;;;;5031590;28;20655;-82
2022/08/31 08:39:09;;;;;;;8.07;2.17;;;18.20;99.90;;;;;;5041296;28;20205;-81
2022/08/31 08:41:41;;;;;;;8.85;1.90;;;18.20;99.90;;;;;;5031748;28;20217;-82
2022/08/31 08:44:14;;;;;;;9.07;2.00;;;18.20;99.90;;;;;;5022614;28;20220;-82
2022/08/31 08:46:50;;;;;;;7.93;2.20;;;18.20;99.90;;;;;;5017176;28;20230;-83
2022/08/31 08:49:34;;;;;;;6.25;2.38;;;18.20;99.90;;;;;;5029076;28;20289;-83
2022/08/31 08:52:10;;;;;;;7.68;2.00;;;18.20;99.90;;;;;;5027498;28;20200;-84
2022/08/31 08:54:48;;;;;;;6.40;1.92;;;18.10;99.90;;;;;;5014745;28;20258;-84
2022/08/31 08:57:23;;;;;;;10.38;2.25;;;18.10;99.90;;;;;;5023173;28;20201;-84
2022/08/31 08:59:57;;;;;;;7.07;2.40;;;18.10;99.90;;;;;;5032001;28;20635;-82
2022/08/31 09:02:42;;;;;;;9.65;2.47;;;18.10;99.90;;;;;;5011392;28;20196;-81
2022/08/31 09:05:37;;;;;;;7.70;2.00;;;18.10;99.90;;;;;;5028227;28;20197;-83
2022/08/31 09:08:27;;;;;;;7.22;2.53;;;18.00;99.90;;;;;;5029384;28;20220;-83
2022/08/31 09:11:18;;;;;;;10.15;3.00;;;18.00;99.90;;;;;;5027603;28;20291;-81
2022/08/31 09:13:56;;;;;;;9.85;3.28;;;18.00;99.90;;;;;;5025458;28;20214;-81
2022/08/31 09:16:37;;;;;;;7.95;2.63;;;17.90;99.90;;;;;;5030568;28;20225;-82
2022/08/31 09:19:11;;;;;;;7.05;2.50;;;17.90;99.90;;;;;;5020650;28;20252;-82
2022/08/31 09:21:46;;;;;;;9.88;2.85;;;17.90;99.90;;;;;;5028501;28;20220;-82
2022/08/31 09:24:20;;;;;;;10.40;2.30;;;17.90;99.90;;;;;;5028021;28;20915;-81
2022/08/31 09:27:16;;;;;;;5.35;1.95;;;17.90;99.90;;;;;;5027013;28;20225;-82
2022/08/31 09:29:49;;;;;;;7.90;2.45;;;17.90;99.90;;;;;;5027665;28;20203;-82
2022/08/31 09:32:27;;;;;;;13.75;2.72;;;17.90;99.90;;;;;;5026584;28;20683;-84
2022/08/31 09:35:01;;;;;;;8.75;2.67;;;17.90;99.90;;;;;;5025141;28;20279;-82
2022/08/31 09:37:39;;;;;;;9.52;2.58;;;17.90;99.90;;;;;;5013778;28;20632;-85
2022/08/31 09:40:18;;;;;;;7.20;2.20;;;17.90;99.90;;;;;;5023486;28;20193;-83
2022/08/31 09:43:04;;;;;;;6.72;2.17;;;17.80;99.90;;;;;;5046212;28;20200;-81
2022/08/31 09:45:36;;;;;;;7.75;2.10;;;17.90;99.90;;;;;;5025678;28;20580;-83
2022/08/31 09:48:09;;;;;;;11.77;2.45;;;17.80;99.90;;;;;;5017502;28;20275;-84
2022/08/31 09:50:43;;;;;;;8.98;2.25;;;17.90;99.90;;;;;;5031280;28;20189;-83
2022/08/31 09:56:15;;;;;;;8.77;2.25;;;17.80;99.90;;;;;;5030772;28;20687;-84
2022/08/31 09:58:51;;;;;;;11.55;2.70;;;17.80;99.90;;;;;;5031021;28;20203;-84
2022/08/31 10:01:30;;;;;;;11.30;2.85;;;17.80;99.90;;;;;;5029763;28;20622;-84
2022/08/31 10:04:25;;;;;;;10.20;2.28;;;17.80;99.90;;;;;;5030884;28;20690;-85
2022/08/31 10:07:00;;;;;;;6.00;2.00;;;17.70;99.90;;;;;;4998348;28;20255;-84
2022/08/31 10:09:37;;;;;;;14.13;2.95;;;17.70;99.90;;;;;;5025759;28;20208;-85
2022/08/31 10:12:11;;;;;;;9.77;2.60;;;17.60;99.90;;;;;;5030583;28;20189;-83
2022/08/31 10:14:49;;;;;;;8.82;2.63;;;17.60;99.90;;;;;;5030764;28;20239;-85
2022/08/31 10:17:29;;;;;;;11.45;2.58;;;17.60;99.90;;;;;;5030747;28;20201;-85
2022/08/31 10:20:09;;;;;;;9.25;2.20;;;17.50;99.90;;;;;;5030989;28;20196;-85
2022/08/31 10:22:49;;;;;;;9.68;1.98;;;17.50;99.90;;;;;;5048069;28;20204;-84
2022/08/31 10:25:45;;;;;;;9.35;2.40;;;17.50;99.90;;;;;;5040722;28;20193;-84
2022/08/31 10:31:18;;;;;;;7.38;2.20;;;17.40;99.90;;;;;;5028758;28;20221;-85
2022/08/31 10:36:46;;;;;;;7.57;1.90;;;17.40;99.90;;;;;;5039091;28;20228;-85
2022/08/31 10:39:36;;;;;;;8.18;2.20;;;17.40;99.90;;;;;;5046221;28;20208;-84
2022/08/31 10:42:16;;;;;;;7.63;1.65;;;17.40;99.90;;;;;;5034300;28;20213;-86
2022/08/31 10:44:57;;;;;;;8.65;1.95;;;17.40;99.90;;;;;;5037534;28;20272;-86
2022/08/31 10:47:40;;;;;;;8.88;1.80;;;17.40;99.90;;;;;;5043348;28;20271;-84
2022/08/31 10:50:21;;;;;;;7.55;1.63;;;17.40;99.90;;;;;;5024897;28;20620;-85
2022/08/31 10:53:02;;;;;;;9.45;1.90;;;17.30;99.90;;;;;;5036567;28;20205;-85
2022/08/31 10:55:48;;;;;;;9.07;2.00;;;17.30;99.90;;;;;;5036815;28;20280;-84
2022/08/31 10:58:30;;;;;;;11.38;2.20;;;17.40;99.90;;;;;;5040471;28;20186;-86
2022/08/31 11:01:11;;;;;;;11.00;2.30;;;17.40;99.90;;;;;;5047921;28;20284;-85
2022/08/31 11:04:24;;;;;;;12.10;2.72;;;17.40;99.90;;;;;;5031970;28;20290;-85
2022/08/31 11:07:05;;;;;;;10.93;2.58;;;17.30;99.90;;;;;;5018755;28;20309;-85
2022/08/31 11:09:42;;;;;;;10.10;2.80;;;17.30;99.90;;;;;;5030638;28;20198;-85
2022/08/31 11:12:20;;;;;;;9.60;2.17;;;17.30;99.90;;;;;;5036371;28;20195;-84
2022/08/31 11:15:24;;;;;;;9.88;2.40;;;17.30;99.90;;;;;;5018699;28;20230;-84
2022/08/31 11:18:34;;;;;;;11.18;2.83;;;17.30;99.90;;;;;;5020751;28;20224;-87
2022/08/31 11:28:04;;;;;;;9.68;2.25;;;17.30;99.90;;;;;;5037085;28;20221;-86
2022/08/31 11:30:42;;;;;;;7.80;2.05;;;17.30;99.90;;;;;;5039022;28;20293;-86
2022/08/31 11:33:18;;;;;;;9.95;1.67;;;17.30;99.90;;;;;;5038729;28;20217;-84
2022/08/31 11:36:05;;;;;;;8.70;2.00;;;17.30;99.90;;;;;;5039363;28;20517;-83
2022/08/31 11:39:19;;;;;;;9.90;2.03;;;17.30;99.90;;;;;;5041200;28;20229;-84
2022/08/31 11:41:50;;;;;;;14.40;2.28;;;17.30;99.90;;;;;;5033633;28;20208;-81
2022/08/31 11:45:00;;;;;;;10.68;1.85;;;17.40;99.90;;;;;;5038598;28;20193;-84
2022/08/31 11:47:48;;;;;;;9.20;2.10;;;17.40;99.90;;;;;;5038511;28;20696;-86
2022/08/31 11:50:54;;;;;;;7.47;1.88;;;17.30;99.90;;;;;;5044756;28;20295;-83
2022/08/31 11:53:35;;;;;;;10.13;1.95;;;17.30;99.90;;;;;;5041364;28;20201;-83
2022/08/31 11:56:14;;;;;;;12.15;2.25;;;17.30;99.90;;;;;;5034139;28;20197;-83
2022/08/31 11:58:46;;;;;;;10.32;1.52;;;17.30;99.90;;;;;;5039300;28;20197;-81
2022/08/31 12:01:41;;;;;;;8.32;1.88;;;17.30;99.90;;;;;;5040115;28;20303;-83
2022/08/31 12:04:57;;;;;;;7.60;2.10;;;17.30;99.90;;;;;;5030225;28;20204;-84
2022/08/31 12:07:45;;;;;;;9.70;1.73;;;17.20;99.90;;;;;;5037176;28;20260;-85
2022/08/31 12:10:57;;;;;;;8.48;1.60;;;17.20;99.90;;;;;;5024041;28;20292;-84
2022/08/31 12:13:48;;;;;;;8.60;1.70;;;17.20;99.90;;;;;;5018640;28;20574;-84
2022/08/31 12:16:39;;;;;;;9.15;2.03;;;17.20;99.90;;;;;;5019794;28;20229;-84
2022/08/31 12:20:07;;;;;;;7.78;2.00;;;17.20;99.90;;;;;;5034192;28;20209;-84
2022/08/31 12:26:14;;;;;;;7.05;1.85;;;17.20;99.90;;;;;;5033378;28;20645;-85
2022/08/31 12:29:11;;;;;;;9.30;1.80;;;17.20;99.90;;;;;;5032986;28;20579;-84
2022/08/31 12:31:45;;;;;;;7.82;1.73;;;17.10;99.90;;;;;;5032247;28;20201;-84
2022/08/31 12:34:21;;;;;;;7.57;1.83;;;17.10;99.90;;;;;;5020840;28;20219;-84
2022/08/31 12:36:52;;;;;;;8.38;1.70;;;17.10;99.90;;;;;;5031653;28;20197;-84
2022/08/31 12:39:25;;;;;;;5.50;1.42;;;17.10;99.90;;;;;;5032370;28;20193;-85
2022/08/31 12:41:58;;;;;;;8.88;1.63;;;17.10;99.90;;;;;;5033490;28;20671;-83
2022/08/31 12:44:33;;;;;;;9.57;2.05;;;17.10;99.90;;;;;;5041815;28;20284;-84
2022/08/31 12:47:09;;;;;;;7.97;1.80;;;17.10;99.90;;;;;;5037663;28;20219;-85
2022/08/31 12:49:50;;;;;;;8.25;2.00;;;17.10;99.90;;;;;;5018610;28;20571;-85
2022/08/31 12:52:34;;;;;;;7.40;1.70;;;17.10;99.90;;;;;;5047802;28;20278;-86
2022/08/31 12:55:25;;;;;;;6.45;1.75;;;17.20;99.90;;;;;;5019622;28;20557;-85
2022/08/31 12:58:13;;;;;;;8.77;1.60;;;17.20;99.90;;;;;;5035108;28;20186;-84
2022/08/31 13:00:47;;;;;;;7.93;1.95;;;17.20;99.90;;;;;;5032321;28;20695;-84
2022/08/31 13:03:24;;;;;;;7.43;1.90;;;17.20;99.90;;;;;;5033996;28;20205;-84
2022/08/31 13:06:17;;;;;;;8.25;1.80;;;17.20;99.90;;;;;;5038870;28;20248;-84
2022/08/31 13:08:51;;;;;;;7.95;1.75;;;17.20;99.90;;;;;;5041996;28;20216;-84
2022/08/31 13:11:29;;;;;;;8.75;2.03;;;17.20;99.90;;;;;;5032132;28;20686;-84
2022/08/31 13:14:12;;;;;;;8.93;2.08;;;17.20;99.90;;;;;;5013178;28;20208;-84
2022/08/31 13:16:47;;;;;;;9.27;2.10;;;17.20;99.90;;;;;;5013216;28;20675;-85
2022/08/31 13:19:24;;;;;;;9.93;2.08;;;17.20;99.90;;;;;;5013450;28;20273;-83
2022/08/31 13:21:58;;;;;;;6.28;1.73;;;17.10;99.90;;;;;;5012037;28;20267;-84
2022/08/31 13:24:33;;;;;;;7.38;1.95;;;17.10;99.90;;;;;;5012164;28;20214;-84
2022/08/31 13:27:09;;;;;;;8.50;1.75;;;17.10;99.90;;;;;;5018620;28;20224;-84
2022/08/31 13:29:55;;;;;;;6.45;1.50;;;17.10;99.90;;;;;;5021837;28;20210;-83
2022/08/31 13:32:39;;;;;;;7.18;1.80;;;17.10;99.90;;;;;;5024665;28;20224;-84
2022/08/31 13:35:17;;;;;;;8.90;1.80;;;17.10;99.90;;;;;;5031196;28;20193;-85
2022/08/31 13:38:03;;;;;;;10.07;2.33;;;17.10;99.90;;;;;;5017673;28;20223;-84
2022/08/31 13:40:36;;;;;;;6.55;1.80;;;17.10;99.90;;;;;;5030305;28;20208;-84
2022/08/31 13:43:08;;;;;;;8.98;2.15;;;17.10;99.90;;;;;;5024452;28;20228;-83
2022/08/31 13:45:56;;;;;;;9.98;2.25;;;17.10;99.90;;;;;;5032016;28;20205;-85
2022/08/31 13:48:33;;;;;;;8.35;2.00;;;17.10;99.90;;;;;;5034909;28;20221;-86
2022/08/31 13:51:12;;;;;;;11.27;2.50;;;17.10;99.90;;;;;;5033910;28;20217;-85
2022/08/31 13:53:45;;;;;;;7.90;1.95;;;17.10;99.90;;;;;;5031173;28;20224;-84
2022/08/31 13:56:57;;;;;;;10.15;1.60;;;17.10;99.90;;;;;;5035878;28;20288;-86
2022/08/31 13:59:36;;;;;;;6.70;1.83;;;17.10;99.90;;;;;;5033390;28;20742;-85
2022/08/31 14:02:26;;;;;;;8.82;1.90;;;17.00;99.90;;;;;;5031988;28;20228;-87
2022/08/31 14:05:03;;;;;;;7.93;2.15;;;17.00;99.90;;;;;;5012819;28;20228;-88
2022/08/31 14:07:56;;;;;;;7.65;1.92;;;17.00;99.90;;;;;;5036054;28;20282;-88
2022/08/31 14:10:30;;;;;;;9.27;1.85;;;17.00;99.90;;;;;;5032428;28;20288;-88
2022/08/31 14:13:12;;;;;;;10.70;1.90;;;17.00;99.90;;;;;;4997484;28;20229;-88
2022/08/31 14:15:55;;;;;;;8.63;1.70;;;17.00;99.90;;;;;;5025224;28;20245;-88
2022/08/31 14:18:28;;;;;;;10.15;2.20;;;16.90;99.90;;;;;;5029544;28;20252;-89
2022/08/31 14:21:28;;;;;;;7.75;1.92;;;16.90;99.90;;;;;;5015337;28;20203;-88